sensor_id;sensor_type;location;lat;lon;timestamp;P1;durP1;ratioP1;P2;durP2;ratioP2
48026;SDS011;50714;49.208;5.364;2022-11-15T00:05:02;5.20;;;3.45;;
48026;SDS011;50714;49.208;5.364;2022-11-15T00:15:03;4.07;;;3.13;;
48026;SDS011;50714;49.208;5.364;2022-11-15T00:25:03;2.87;;;2.40;;
48026;SDS011;50714;49.208;5.364;2022-11-15T00:35:04;2.15;;;1.95;;
48026;SDS011;50714;49.208;5.364;2022-11-15T00:45:05;3.25;;;1.80;;
48026;SDS011;50714;49.208;5.364;2022-11-15T00:55:06;2.47;;;1.95;;
48026;SDS011;50714;49.208;5.364;2022-11-15T01:05:07;3.78;;;2.60;;
48026;SDS011;50714;49.208;5.364;2022-11-15T01:15:07;3.20;;;2.35;;
48026;SDS011;50714;49.208;5.364;2022-11-15T01:25:08;2.80;;;2.03;;
48026;SDS011;50714;49.208;5.364;2022-11-15T01:35:08;3.30;;;2.10;;
48026;SDS011;50714;49.208;5.364;2022-11-15T01:45:12;13.20;;;5.32;;
48026;SDS011;50714;49.208;5.364;2022-11-15T01:55:15;4.50;;;2.20;;
48026;SDS011;50714;49.208;5.364;2022-11-15T02:05:21;1.10;;;1.00;;
48026;SDS011;50714;49.208;5.364;2022-11-15T02:15:23;0.90;;;0.90;;
48026;SDS011;50714;49.208;5.364;2022-11-15T02:25:36;1.40;;;1.20;;
48026;SDS011;50714;49.208;5.364;2022-11-15T02:45:48;1.33;;;1.20;;
48026;SDS011;50714;49.208;5.364;2022-11-15T02:55:53;1.65;;;1.30;;
48026;SDS011;50714;49.208;5.364;2022-11-15T03:06:19;1.33;;;1.23;;
48026;SDS011;50714;49.208;5.364;2022-11-15T03:26:33;1.38;;;1.00;;
48026;SDS011;50714;49.208;5.364;2022-11-15T03:36:37;1.52;;;1.00;;
48026;SDS011;50714;49.208;5.364;2022-11-15T03:46:58;1.40;;;1.00;;
48026;SDS011;50714;49.208;5.364;2022-11-15T03:57:06;1.77;;;0.90;;
48026;SDS011;50714;49.208;5.364;2022-11-15T04:07:06;0.77;;;0.73;;
48026;SDS011;50714;49.208;5.364;2022-11-15T04:17:07;2.20;;;1.20;;
48026;SDS011;50714;49.208;5.364;2022-11-15T04:27:07;1.67;;;0.90;;
48026;SDS011;50714;49.208;5.364;2022-11-15T04:37:07;0.75;;;0.70;;
48026;SDS011;50714;49.208;5.364;2022-11-15T04:47:15;1.67;;;0.90;;
48026;SDS011;50714;49.208;5.364;2022-11-15T04:57:15;1.42;;;0.88;;
48026;SDS011;50714;49.208;5.364;2022-11-15T05:07:15;1.67;;;0.80;;
48026;SDS011;50714;49.208;5.364;2022-11-15T05:17:16;1.83;;;1.00;;
48026;SDS011;50714;49.208;5.364;2022-11-15T05:27:17;1.38;;;0.80;;
48026;SDS011;50714;49.208;5.364;2022-11-15T05:37:18;5.30;;;1.73;;
48026;SDS011;50714;49.208;5.364;2022-11-15T05:47:19;1.35;;;1.23;;
48026;SDS011;50714;49.208;5.364;2022-11-15T05:57:24;1.60;;;1.10;;
48026;SDS011;50714;49.208;5.364;2022-11-15T06:07:24;1.95;;;1.20;;
48026;SDS011;50714;49.208;5.364;2022-11-15T06:17:25;1.70;;;1.00;;
48026;SDS011;50714;49.208;5.364;2022-11-15T06:27:25;2.03;;;1.10;;
48026;SDS011;50714;49.208;5.364;2022-11-15T06:37:26;9.20;;;5.85;;
48026;SDS011;50714;49.208;5.364;2022-11-15T06:47:26;3.78;;;2.20;;
48026;SDS011;50714;49.208;5.364;2022-11-15T06:57:26;1.17;;;0.98;;
48026;SDS011;50714;49.208;5.364;2022-11-15T07:07:27;1.52;;;1.27;;
48026;SDS011;50714;49.208;5.364;2022-11-15T07:17:27;4.03;;;2.92;;
48026;SDS011;50714;49.208;5.364;2022-11-15T07:27:28;5.82;;;3.88;;
48026;SDS011;50714;49.208;5.364;2022-11-15T07:37:28;3.72;;;2.20;;
48026;SDS011;50714;49.208;5.364;2022-11-15T07:47:28;4.80;;;3.58;;
48026;SDS011;50714;49.208;5.364;2022-11-15T07:57:29;6.13;;;5.00;;
48026;SDS011;50714;49.208;5.364;2022-11-15T08:07:29;4.97;;;3.22;;
48026;SDS011;50714;49.208;5.364;2022-11-15T08:17:30;3.20;;;2.50;;
48026;SDS011;50714;49.208;5.364;2022-11-15T08:27:32;2.90;;;2.58;;
48026;SDS011;50714;49.208;5.364;2022-11-15T08:37:33;1.98;;;1.70;;
48026;SDS011;50714;49.208;5.364;2022-11-15T08:47:33;2.53;;;1.73;;
48026;SDS011;50714;49.208;5.364;2022-11-15T08:57:34;2.45;;;1.67;;
48026;SDS011;50714;49.208;5.364;2022-11-15T09:07:34;3.25;;;1.60;;
48026;SDS011;50714;49.208;5.364;2022-11-15T09:17:35;3.13;;;1.77;;
48026;SDS011;50714;49.208;5.364;2022-11-15T09:27:36;2.40;;;1.65;;
48026;SDS011;50714;49.208;5.364;2022-11-15T09:37:36;2.55;;;1.60;;
48026;SDS011;50714;49.208;5.364;2022-11-15T10:08:01;2.67;;;1.70;;
48026;SDS011;50714;49.208;5.364;2022-11-15T10:28:34;2.15;;;1.70;;
48026;SDS011;50714;49.208;5.364;2022-11-15T10:48:48;2.10;;;1.45;;
48026;SDS011;50714;49.208;5.364;2022-11-15T10:58:52;2.40;;;1.77;;
48026;SDS011;50714;49.208;5.364;2022-11-15T11:08:56;1.87;;;1.53;;
48026;SDS011;50714;49.208;5.364;2022-11-15T11:19:33;2.15;;;1.35;;
48026;SDS011;50714;49.208;5.364;2022-11-15T11:50:19;1.50;;;1.30;;
48026;SDS011;50714;49.208;5.364;2022-11-15T12:00:24;2.30;;;1.25;;
48026;SDS011;50714;49.208;5.364;2022-11-15T12:10:30;4.63;;;1.60;;
48026;SDS011;50714;49.208;5.364;2022-11-15T12:20:35;1.87;;;1.60;;
48026;SDS011;50714;49.208;5.364;2022-11-15T12:30:47;1.50;;;1.40;;
48026;SDS011;50714;49.208;5.364;2022-11-15T13:11:46;1.92;;;1.10;;
48026;SDS011;50714;49.208;5.364;2022-11-15T13:21:49;2.17;;;1.40;;
48026;SDS011;50714;49.208;5.364;2022-11-15T13:32:11;1.83;;;1.65;;
48026;SDS011;50714;49.208;5.364;2022-11-15T13:42:17;3.58;;;2.33;;
48026;SDS011;50714;49.208;5.364;2022-11-15T13:52:19;4.85;;;3.72;;
48026;SDS011;50714;49.208;5.364;2022-11-15T14:02:21;2.47;;;2.17;;
48026;SDS011;50714;49.208;5.364;2022-11-15T14:12:33;2.00;;;1.77;;
48026;SDS011;50714;49.208;5.364;2022-11-15T14:22:35;2.20;;;1.58;;
48026;SDS011;50714;49.208;5.364;2022-11-15T14:32:48;2.35;;;2.10;;
48026;SDS011;50714;49.208;5.364;2022-11-15T14:42:50;3.30;;;2.50;;
48026;SDS011;50714;49.208;5.364;2022-11-15T14:52:50;2.65;;;2.15;;
48026;SDS011;50714;49.208;5.364;2022-11-15T15:02:52;2.78;;;2.20;;
48026;SDS011;50714;49.208;5.364;2022-11-15T15:12:53;3.53;;;3.13;;
48026;SDS011;50714;49.208;5.364;2022-11-15T15:22:54;2.85;;;2.28;;
48026;SDS011;50714;49.208;5.364;2022-11-15T15:32:54;3.38;;;2.83;;
48026;SDS011;50714;49.208;5.364;2022-11-15T15:42:55;3.72;;;2.70;;
48026;SDS011;50714;49.208;5.364;2022-11-15T15:52:56;3.83;;;3.40;;
48026;SDS011;50714;49.208;5.364;2022-11-15T16:02:58;3.55;;;2.70;;
48026;SDS011;50714;49.208;5.364;2022-11-15T16:12:59;4.15;;;2.00;;
48026;SDS011;50714;49.208;5.364;2022-11-15T16:23:00;2.30;;;2.10;;
48026;SDS011;50714;49.208;5.364;2022-11-15T16:33:01;3.28;;;2.85;;
48026;SDS011;50714;49.208;5.364;2022-11-15T16:43:01;2.90;;;2.55;;
48026;SDS011;50714;49.208;5.364;2022-11-15T16:53:03;6.03;;;5.00;;
48026;SDS011;50714;49.208;5.364;2022-11-15T17:03:03;3.92;;;3.53;;
48026;SDS011;50714;49.208;5.364;2022-11-15T17:13:04;2.45;;;2.20;;
48026;SDS011;50714;49.208;5.364;2022-11-15T17:23:04;2.47;;;2.20;;
48026;SDS011;50714;49.208;5.364;2022-11-15T17:33:11;5.15;;;3.78;;
48026;SDS011;50714;49.208;5.364;2022-11-15T17:43:11;6.13;;;4.70;;
48026;SDS011;50714;49.208;5.364;2022-11-15T17:53:12;7.30;;;5.15;;
48026;SDS011;50714;49.208;5.364;2022-11-15T18:03:12;6.32;;;4.90;;
48026;SDS011;50714;49.208;5.364;2022-11-15T18:13:13;6.55;;;4.90;;
48026;SDS011;50714;49.208;5.364;2022-11-15T18:23:15;6.32;;;4.68;;
48026;SDS011;50714;49.208;5.364;2022-11-15T18:33:15;6.47;;;5.32;;
48026;SDS011;50714;49.208;5.364;2022-11-15T18:43:15;5.22;;;4.10;;
48026;SDS011;50714;49.208;5.364;2022-11-15T18:53:16;5.10;;;4.35;;
48026;SDS011;50714;49.208;5.364;2022-11-15T19:03:16;5.03;;;4.28;;
48026;SDS011;50714;49.208;5.364;2022-11-15T19:13:17;6.68;;;5.35;;
48026;SDS011;50714;49.208;5.364;2022-11-15T19:23:17;11.45;;;9.45;;
48026;SDS011;50714;49.208;5.364;2022-11-15T19:33:18;9.43;;;7.72;;
48026;SDS011;50714;49.208;5.364;2022-11-15T19:43:18;5.55;;;4.82;;
48026;SDS011;50714;49.208;5.364;2022-11-15T19:53:19;5.43;;;4.70;;
48026;SDS011;50714;49.208;5.364;2022-11-15T20:03:19;4.60;;;3.80;;
48026;SDS011;50714;49.208;5.364;2022-11-15T20:13:20;4.68;;;4.07;;
48026;SDS011;50714;49.208;5.364;2022-11-15T20:23:20;4.35;;;3.90;;
48026;SDS011;50714;49.208;5.364;2022-11-15T20:33:21;3.80;;;3.33;;
48026;SDS011;50714;49.208;5.364;2022-11-15T20:43:22;5.10;;;3.80;;
48026;SDS011;50714;49.208;5.364;2022-11-15T20:53:22;4.25;;;3.38;;
48026;SDS011;50714;49.208;5.364;2022-11-15T21:03:23;4.10;;;3.35;;
48026;SDS011;50714;49.208;5.364;2022-11-15T21:13:23;4.63;;;3.60;;
48026;SDS011;50714;49.208;5.364;2022-11-15T21:23:23;3.75;;;3.38;;
48026;SDS011;50714;49.208;5.364;2022-11-15T21:33:24;5.10;;;3.75;;
48026;SDS011;50714;49.208;5.364;2022-11-15T21:43:26;5.03;;;4.07;;
48026;SDS011;50714;49.208;5.364;2022-11-15T21:53:27;6.28;;;5.07;;
48026;SDS011;50714;49.208;5.364;2022-11-15T22:03:28;6.50;;;5.80;;
48026;SDS011;50714;49.208;5.364;2022-11-15T22:13:29;5.38;;;4.63;;
48026;SDS011;50714;49.208;5.364;2022-11-15T22:23:30;8.75;;;6.15;;
48026;SDS011;50714;49.208;5.364;2022-11-15T22:33:32;4.38;;;3.42;;
48026;SDS011;50714;49.208;5.364;2022-11-15T22:43:33;6.95;;;3.72;;
48026;SDS011;50714;49.208;5.364;2022-11-15T22:53:33;12.50;;;7.65;;
48026;SDS011;50714;49.208;5.364;2022-11-15T23:03:34;12.27;;;7.65;;
48026;SDS011;50714;49.208;5.364;2022-11-15T23:13:34;10.77;;;7.10;;
48026;SDS011;50714;49.208;5.364;2022-11-15T23:23:35;3.15;;;2.25;;
48026;SDS011;50714;49.208;5.364;2022-11-15T23:33:36;2.28;;;1.50;;
48026;SDS011;50714;49.208;5.364;2022-11-15T23:43:55;3.95;;;1.48;;
48026;SDS011;50714;49.208;5.364;2022-11-15T23:53:56;2.05;;;1.30;;
